Time;durP1;ratioP1;P1;durP2;ratioP2;P2;SDS_P1;SDS_P2;PMS_P1;PMS_P2;Temp;Humidity;BMP_temperature;BMP_pressure;BME280_temperature;BME280_humidity;BME280_pressure;Samples;Min_cycle;Max_cycle;Signal;HPM_P1;HPM_P2
2024/04/05 00:02:18;;;;;;;7.30;7.03;;;13.20;1.00;;;;;;5059798;28;20537;-80
2024/04/05 00:04:45;;;;;;;8.03;7.40;;;13.20;1.00;;;;;;5054378;28;20594;-81
2024/04/05 00:07:13;;;;;;;7.73;7.37;;;13.20;99.90;;;;;;5056521;28;20531;-80
2024/04/05 00:09:40;;;;;;;8.47;7.83;;;13.30;99.90;;;;;;5055244;28;20858;-83
2024/04/05 00:12:08;;;;;;;6.87;6.77;;;13.20;99.90;;;;;;5053782;28;20523;-81
2024/04/05 00:14:34;;;;;;;8.53;7.77;;;13.30;99.90;;;;;;5049305;28;20894;-81
2024/04/05 00:17:02;;;;;;;8.53;8.07;;;13.30;99.90;;;;;;5053146;28;20521;-82
2024/04/05 00:19:29;;;;;;;7.33;7.03;;;13.20;1.00;;;;;;5058062;28;20475;-81
2024/04/05 00:21:56;;;;;;;7.70;7.40;;;13.20;1.00;;;;;;5053789;28;20478;-80
2024/04/05 00:24:22;;;;;;;8.47;7.97;;;13.20;1.00;;;;;;5056932;28;20446;-80
2024/04/05 00:26:49;;;;;;;7.60;7.40;;;13.20;1.00;;;;;;5054938;28;20483;-83
2024/04/05 00:29:15;;;;;;;7.97;7.67;;;13.20;1.00;;;;;;5061848;28;20623;-82
2024/04/05 00:31:42;;;;;;;7.83;7.47;;;13.20;83.00;;;;;;5054483;28;21008;-82
2024/04/05 00:34:09;;;;;;;8.33;7.93;;;13.20;99.90;;;;;;5056275;28;20503;-80
2024/04/05 00:36:37;;;;;;;8.23;7.93;;;13.20;96.20;;;;;;5057728;28;21093;-80
2024/04/05 00:39:03;;;;;;;7.43;7.13;;;13.20;33.30;;;;;;5053880;28;20464;-83
2024/04/05 00:41:30;;;;;;;8.13;7.80;;;13.20;29.70;;;;;;5051805;28;20810;-82
2024/04/05 00:43:56;;;;;;;8.97;8.27;;;13.20;1.00;;;;;;5055188;28;20508;-84
2024/04/05 00:46:23;;;;;;;8.20;7.83;;;13.10;19.60;;;;;;5058896;28;20472;-81
2024/04/05 00:48:50;;;;;;;8.10;7.90;;;13.10;99.90;;;;;;5053285;28;21065;-82
2024/04/05 00:51:19;;;;;;;8.10;7.80;;;13.10;99.90;;;;;;5056952;28;20476;-82
2024/04/05 00:53:47;;;;;;;7.80;7.47;;;13.10;30.50;;;;;;5053137;28;20481;-81
2024/04/05 00:56:14;;;;;;;8.10;7.80;;;13.10;99.90;;;;;;5055768;28;20513;-80
2024/04/05 00:58:41;;;;;;;7.97;7.67;;;13.20;99.90;;;;;;5057946;28;20462;-83
2024/04/05 01:01:08;;;;;;;8.30;7.80;;;13.10;14.50;;;;;;5057084;28;20451;-81
2024/04/05 01:03:35;;;;;;;8.20;7.67;;;13.10;2.90;;;;;;5055597;28;20962;-80
2024/04/05 01:06:02;;;;;;;7.30;7.00;;;13.10;1.00;;;;;;5057859;28;20449;-79
2024/04/05 01:08:31;;;;;;;7.63;7.30;;;13.10;1.00;;;;;;5063258;28;20438;-81
2024/04/05 01:10:58;;;;;;;8.70;8.03;;;13.20;1.00;;;;;;5053195;28;20457;-80
2024/04/05 01:13:24;;;;;;;7.80;7.50;;;13.10;1.00;;;;;;5058524;28;20452;-82
2024/04/05 01:15:52;;;;;;;7.47;7.27;;;13.10;1.00;;;;;;5052771;28;20588;-82
2024/04/05 01:18:18;;;;;;;7.30;7.10;;;13.10;1.00;;;;;;5058903;28;21227;-80
2024/04/05 01:20:50;;;;;;;8.03;7.63;;;13.10;1.00;;;;;;5055065;28;21037;-79
2024/04/05 01:23:19;;;;;;;7.87;7.53;;;13.10;1.00;;;;;;5055118;28;20555;-79
2024/04/05 01:25:47;;;;;;;7.90;7.43;;;13.10;1.00;;;;;;5038878;28;20512;-80
2024/04/05 01:28:14;;;;;;;7.60;7.30;;;13.10;1.00;;;;;;5057610;28;20488;-80
2024/04/05 01:30:42;;;;;;;7.77;7.27;;;13.10;65.90;;;;;;5053631;28;20564;-81
2024/04/05 01:33:08;;;;;;;7.90;7.60;;;13.10;1.00;;;;;;5058548;28;20518;-81
2024/04/05 01:35:35;;;;;;;7.70;7.40;;;13.10;4.30;;;;;;5052414;28;20483;-79
2024/04/05 01:38:01;;;;;;;9.07;8.27;;;13.10;35.30;;;;;;5056132;28;21456;-81
2024/04/05 01:40:28;;;;;;;7.73;7.43;;;13.10;99.90;;;;;;5055136;28;20682;-80
2024/04/05 01:42:56;;;;;;;8.87;8.07;;;13.00;81.30;;;;;;5054785;28;20564;-80
2024/04/05 01:45:23;;;;;;;8.67;8.27;;;13.00;85.40;;;;;;5057737;28;20439;-81
2024/04/05 01:47:49;;;;;;;8.23;7.93;;;13.00;1.00;;;;;;5056513;28;20461;-81
2024/04/05 01:50:17;;;;;;;7.80;7.60;;;13.10;1.00;;;;;;5057324;28;20471;-80
2024/04/05 01:52:43;;;;;;;8.43;7.93;;;13.10;99.90;;;;;;5059200;28;21167;-81
2024/04/05 01:55:11;;;;;;;8.23;7.83;;;13.00;99.90;;;;;;5056191;28;21004;-82
2024/04/05 01:57:37;;;;;;;8.50;8.20;;;13.10;1.00;;;;;;5055732;28;20445;-81
2024/04/05 02:00:08;;;;;;;8.50;8.30;;;13.00;71.00;;;;;;5045907;28;20478;-81
2024/04/05 02:02:34;;;;;;;8.90;8.60;;;13.00;99.90;;;;;;5051578;28;20829;-80
2024/04/05 02:05:01;;;;;;;7.87;7.63;;;12.90;99.90;;;;;;5055927;28;20466;-80
2024/04/05 02:07:28;;;;;;;8.70;8.30;;;13.00;99.90;;;;;;5072865;28;20450;-81
2024/04/05 02:09:56;;;;;;;8.47;8.13;;;12.90;99.90;;;;;;5055740;28;20469;-81
2024/04/05 02:12:23;;;;;;;8.10;7.90;;;12.90;99.90;;;;;;5062378;28;20440;-82
2024/04/05 02:14:51;;;;;;;9.17;8.37;;;12.90;99.90;;;;;;5058005;28;20449;-80
2024/04/05 02:17:19;;;;;;;8.50;8.20;;;12.90;99.90;;;;;;5060681;28;20439;-80
2024/04/05 02:19:46;;;;;;;8.77;8.33;;;12.90;99.90;;;;;;5058507;28;20506;-80
2024/04/05 02:22:12;;;;;;;8.50;8.10;;;13.00;1.00;;;;;;5056128;28;20492;-82
2024/04/05 02:24:39;;;;;;;8.30;8.00;;;13.00;99.90;;;;;;5058609;28;20529;-81
2024/04/05 02:27:06;;;;;;;8.40;8.00;;;13.10;99.90;;;;;;5066201;28;20490;-81
2024/04/05 02:29:34;;;;;;;8.83;8.20;;;13.10;1.00;;;;;;5060423;28;20815;-80
2024/04/05 02:32:00;;;;;;;8.10;7.80;;;13.10;1.00;;;;;;5042093;28;20452;-84
2024/04/05 02:34:29;;;;;;;8.07;7.87;;;13.10;1.00;;;;;;5059438;28;20435;-81
2024/04/05 02:36:55;;;;;;;8.33;8.00;;;13.10;1.00;;;;;;5058352;28;21348;-82
2024/04/05 02:39:22;;;;;;;7.97;7.67;;;13.10;99.90;;;;;;5054743;28;20603;-80
2024/04/05 02:41:48;;;;;;;7.97;7.77;;;13.10;99.90;;;;;;5059126;28;20451;-84
2024/04/05 02:44:16;;;;;;;7.83;7.33;;;13.10;99.90;;;;;;5058447;28;20447;-82
2024/04/05 02:46:42;;;;;;;7.90;7.60;;;13.10;99.90;;;;;;5057279;28;20447;-80
2024/04/05 02:49:11;;;;;;;8.07;7.67;;;13.10;99.90;;;;;;5056877;28;20574;-80
2024/04/05 02:51:38;;;;;;;8.33;7.93;;;13.10;1.00;;;;;;5060494;28;20482;-82
2024/04/05 02:54:06;;;;;;;8.07;7.47;;;13.10;1.00;;;;;;5056622;28;20444;-80
2024/04/05 02:56:32;;;;;;;8.03;7.53;;;13.00;1.00;;;;;;5056194;28;20562;-83
2024/04/05 02:59:00;;;;;;;7.73;7.53;;;13.00;1.00;;;;;;5058548;28;20551;-79
2024/04/05 03:01:27;;;;;;;8.00;7.70;;;13.00;1.00;;;;;;5059195;28;20487;-82
2024/04/05 03:03:54;;;;;;;8.03;7.73;;;13.00;1.00;;;;;;5057946;28;20508;-80
2024/04/05 03:06:20;;;;;;;8.20;7.77;;;13.00;1.00;;;;;;5054904;28;20463;-80
2024/04/05 03:08:49;;;;;;;8.83;8.53;;;12.90;1.00;;;;;;5059850;28;20614;-79
2024/04/05 03:11:15;;;;;;;8.20;7.90;;;13.00;1.00;;;;;;5056727;28;20476;-80
2024/04/05 03:13:42;;;;;;;8.37;8.07;;;12.90;1.00;;;;;;5057933;28;20481;-79
2024/04/05 03:16:08;;;;;;;8.10;7.80;;;12.90;1.00;;;;;;5055310;28;20575;-80
2024/04/05 03:18:36;;;;;;;8.53;8.30;;;12.90;1.00;;;;;;5058916;28;21044;-82
2024/04/05 03:21:02;;;;;;;8.60;7.90;;;12.80;1.00;;;;;;5064826;28;20479;-82
2024/04/05 03:23:29;;;;;;;8.60;8.20;;;12.90;1.00;;;;;;5055055;28;20479;-80
2024/04/05 03:25:57;;;;;;;8.47;7.87;;;12.90;1.00;;;;;;5054231;28;20607;-80
2024/04/05 03:28:24;;;;;;;7.90;7.70;;;12.90;1.00;;;;;;5055667;28;20487;-80
2024/04/05 03:30:51;;;;;;;7.77;7.57;;;12.90;99.90;;;;;;5053702;28;20475;-83
2024/04/05 03:33:18;;;;;;;8.40;8.00;;;12.90;99.90;;;;;;5059075;28;20793;-82
2024/04/05 03:35:44;;;;;;;7.93;7.60;;;13.00;99.90;;;;;;5057308;28;20467;-80
2024/04/05 03:38:11;;;;;;;8.00;7.70;;;13.00;99.90;;;;;;5058427;28;20492;-80
2024/04/05 03:40:39;;;;;;;8.00;7.80;;;13.00;99.90;;;;;;5058270;28;20510;-79
2024/04/05 03:43:08;;;;;;;8.20;7.90;;;13.00;99.90;;;;;;5058614;28;20929;-80
2024/04/05 03:45:35;;;;;;;7.43;7.20;;;13.00;99.90;;;;;;5057289;28;20510;-81
2024/04/05 03:48:01;;;;;;;7.50;7.30;;;13.00;99.90;;;;;;5058427;28;20493;-81
2024/04/05 03:50:28;;;;;;;8.10;7.70;;;13.00;99.90;;;;;;5057481;28;20496;-81
2024/04/05 03:52:54;;;;;;;7.73;7.53;;;13.10;99.90;;;;;;5057229;28;20481;-82
2024/04/05 03:55:21;;;;;;;7.20;7.00;;;13.00;94.10;;;;;;5054773;28;20492;-81
2024/04/05 03:57:52;;;;;;;7.60;7.30;;;13.10;1.00;;;;;;5054930;28;20475;-83
2024/04/05 04:00:22;;;;;;;7.67;7.27;;;13.00;1.00;;;;;;5056420;28;21059;-86
2024/04/05 04:02:53;;;;;;;7.60;7.40;;;13.00;1.00;;;;;;5052063;28;20538;-80
2024/04/05 04:05:20;;;;;;;7.27;7.03;;;13.00;1.00;;;;;;5036297;28;20443;-83
2024/04/05 04:07:47;;;;;;;7.63;7.40;;;13.00;1.00;;;;;;5052582;28;20471;-80
2024/04/05 04:10:14;;;;;;;8.23;7.80;;;13.00;1.00;;;;;;5057659;28;20694;-82
2024/04/05 04:12:40;;;;;;;7.93;7.60;;;12.90;26.80;;;;;;5054925;28;20442;-80
2024/04/05 04:15:11;;;;;;;8.23;7.93;;;12.90;77.20;;;;;;5055708;28;20457;-80
2024/04/05 04:17:38;;;;;;;7.70;7.50;;;12.90;66.80;;;;;;5042685;28;20498;-82
2024/04/05 04:20:08;;;;;;;8.13;7.80;;;12.90;36.40;;;;;;5053732;28;20589;-81
2024/04/05 04:22:35;;;;;;;7.57;7.27;;;12.90;27.40;;;;;;5061137;28;21040;-80
2024/04/05 04:25:02;;;;;;;8.40;7.90;;;12.90;2.40;;;;;;5053988;28;20684;-80
2024/04/05 04:27:28;;;;;;;7.50;7.30;;;12.90;99.90;;;;;;5053570;28;20449;-80
2024/04/05 04:29:55;;;;;;;8.20;7.90;;;12.90;99.90;;;;;;5036123;28;20544;-81
2024/04/05 04:32:22;;;;;;;8.33;7.73;;;12.90;99.90;;;;;;5057481;28;21208;-80
2024/04/05 04:34:51;;;;;;;7.53;7.23;;;12.90;21.30;;;;;;5054761;28;20454;-83
2024/04/05 04:37:19;;;;;;;7.70;7.20;;;12.90;1.00;;;;;;5057574;28;20481;-80
2024/04/05 04:39:47;;;;;;;7.40;7.10;;;12.90;1.00;;;;;;5056994;28;20527;-83
2024/04/05 04:42:13;;;;;;;7.87;7.57;;;12.90;1.00;;;;;;5062696;28;20504;-79
2024/04/05 04:44:41;;;;;;;7.07;6.70;;;12.90;1.00;;;;;;5054358;28;20697;-79
2024/04/05 04:47:07;;;;;;;7.50;7.00;;;13.00;1.00;;;;;;5040343;28;20476;-80
2024/04/05 04:49:35;;;;;;;6.93;6.73;;;13.00;1.00;;;;;;5049381;28;21293;-80
2024/04/05 04:52:03;;;;;;;6.87;6.47;;;13.00;1.00;;;;;;5059510;28;20496;-80
2024/04/05 04:54:30;;;;;;;6.80;6.60;;;13.00;1.00;;;;;;5051379;28;20454;-80
2024/04/05 04:56:56;;;;;;;7.80;7.30;;;13.00;1.00;;;;;;5054190;28;20476;-80
2024/04/05 04:59:28;;;;;;;7.13;6.90;;;12.90;1.00;;;;;;5045928;28;20471;-80
2024/04/05 05:01:55;;;;;;;7.77;7.10;;;12.90;1.00;;;;;;5053053;28;20490;-80
2024/04/05 05:04:22;;;;;;;8.70;8.17;;;12.90;1.00;;;;;;5052647;28;20449;-80
2024/04/05 05:06:50;;;;;;;7.73;7.30;;;13.00;1.00;;;;;;5059568;28;20448;-80
2024/04/05 05:09:19;;;;;;;6.90;6.70;;;12.90;1.00;;;;;;5053901;28;20470;-81
2024/04/05 05:11:46;;;;;;;7.80;7.30;;;13.00;1.00;;;;;;5056760;28;20487;-80
2024/04/05 05:14:14;;;;;;;7.30;6.90;;;13.00;1.00;;;;;;5056175;28;20452;-79
2024/04/05 05:16:40;;;;;;;7.50;7.27;;;13.00;1.00;;;;;;5053038;28;20475;-80
2024/04/05 05:19:09;;;;;;;7.87;7.23;;;13.00;99.90;;;;;;5060643;28;21342;-80
2024/04/05 05:21:35;;;;;;;7.20;7.00;;;13.00;1.00;;;;;;5054787;28;20457;-80
2024/04/05 05:24:04;;;;;;;7.30;7.00;;;13.00;1.00;;;;;;5044073;28;20456;-80
2024/04/05 05:26:32;;;;;;;7.07;6.87;;;13.00;1.00;;;;;;5054049;28;20478;-81
2024/04/05 05:28:59;;;;;;;7.10;6.90;;;13.00;1.00;;;;;;5043168;28;20536;-80
2024/04/05 05:31:25;;;;;;;7.00;6.70;;;12.90;1.00;;;;;;5053224;28;20449;-81
2024/04/05 05:33:53;;;;;;;7.33;7.13;;;12.90;1.00;;;;;;5057523;28;20833;-80
2024/04/05 05:36:19;;;;;;;7.00;6.90;;;12.90;1.00;;;;;;5052189;28;20501;-80
2024/04/05 05:38:46;;;;;;;7.50;7.20;;;12.90;1.00;;;;;;5036671;28;21257;-79
2024/04/05 05:41:12;;;;;;;7.70;7.40;;;12.80;96.00;;;;;;5053635;28;20463;-81
2024/04/05 05:43:41;;;;;;;7.10;6.80;;;12.70;99.90;;;;;;5051605;28;20454;-80
2024/04/05 05:46:07;;;;;;;7.60;6.90;;;12.80;99.90;;;;;;5056476;28;20508;-81
2024/04/05 05:48:35;;;;;;;7.63;7.40;;;12.70;99.90;;;;;;5041941;28;20445;-80
2024/04/05 05:51:01;;;;;;;7.30;7.00;;;12.70;99.90;;;;;;5052574;28;20458;-80
2024/04/05 05:53:29;;;;;;;7.20;6.90;;;12.70;99.90;;;;;;5055123;28;20464;-79
2024/04/05 05:55:55;;;;;;;8.57;7.80;;;12.80;99.90;;;;;;5036218;28;20494;-80
2024/04/05 05:58:22;;;;;;;6.67;6.47;;;12.90;1.00;;;;;;5050486;28;20459;-80
2024/04/05 06:00:50;;;;;;;7.77;7.27;;;13.00;1.00;;;;;;5051683;28;21060;-83
2024/04/05 06:03:17;;;;;;;7.00;6.80;;;13.00;1.00;;;;;;5055244;28;20462;-80
2024/04/05 06:05:49;;;;;;;7.53;7.23;;;13.10;1.00;;;;;;5036199;28;20506;-81
2024/04/05 06:08:17;;;;;;;6.93;6.73;;;13.20;1.00;;;;;;5047557;28;22540;-80
2024/04/05 06:10:44;;;;;;;7.73;7.30;;;13.30;1.00;;;;;;5054597;28;20473;-82
2024/04/05 06:13:11;;;;;;;7.47;7.00;;;13.40;1.00;;;;;;5049725;28;20523;-80
2024/04/05 06:15:37;;;;;;;7.90;7.40;;;13.40;1.00;;;;;;5036328;28;20567;-82
2024/04/05 06:18:07;;;;;;;7.63;7.33;;;13.60;1.00;;;;;;5036163;28;20483;-78
2024/04/05 06:20:33;;;;;;;7.17;6.87;;;13.70;99.90;;;;;;5052902;28;20887;-80
2024/04/05 06:23:00;;;;;;;7.03;6.80;;;13.80;99.90;;;;;;5055858;28;20450;-80
2024/04/05 06:25:27;;;;;;;7.13;6.70;;;13.80;99.90;;;;;;5056900;28;20449;-78
2024/04/05 06:27:55;;;;;;;6.80;6.67;;;14.00;99.90;;;;;;5055428;28;20455;-80
2024/04/05 06:30:21;;;;;;;6.87;6.57;;;14.00;99.90;;;;;;5037980;28;21088;-78
2024/04/05 06:32:49;;;;;;;7.47;7.13;;;14.10;99.90;;;;;;5059026;28;20579;-79
2024/04/05 06:35:16;;;;;;;7.83;7.33;;;14.20;99.90;;;;;;5058092;28;20979;-78
2024/04/05 06:37:43;;;;;;;6.93;6.73;;;14.20;99.90;;;;;;5056878;28;20558;-78
2024/04/05 06:40:12;;;;;;;6.90;6.57;;;14.20;99.90;;;;;;5038770;28;20473;-81
2024/04/05 06:42:39;;;;;;;6.87;6.47;;;14.20;99.90;;;;;;5058632;28;20458;-80
2024/04/05 06:45:08;;;;;;;6.73;6.53;;;14.30;99.90;;;;;;5040581;28;20490;-79
2024/04/05 06:47:36;;;;;;;7.40;7.00;;;14.30;99.90;;;;;;5058190;28;20441;-79
2024/04/05 06:50:04;;;;;;;6.77;6.47;;;14.40;99.90;;;;;;5054753;28;21114;-79
2024/04/05 06:52:33;;;;;;;7.33;6.77;;;14.40;71.10;;;;;;5056343;28;20460;-76
2024/04/05 06:55:00;;;;;;;7.87;7.37;;;14.50;57.70;;;;;;5063360;28;20473;-77
2024/04/05 06:57:27;;;;;;;7.60;7.20;;;14.50;49.10;;;;;;5055183;28;20477;-77
2024/04/05 06:59:53;;;;;;;7.40;7.00;;;14.50;15.00;;;;;;5062860;28;20479;-77
2024/04/05 07:02:22;;;;;;;6.73;6.53;;;14.60;26.10;;;;;;5038074;28;20550;-78
2024/04/05 07:04:49;;;;;;;7.43;7.13;;;14.60;1.00;;;;;;5059748;28;20443;-79
2024/04/05 07:07:16;;;;;;;7.00;6.70;;;14.60;7.50;;;;;;5061764;28;21026;-80
2024/04/05 07:09:45;;;;;;;6.93;6.33;;;14.60;1.00;;;;;;5057688;28;20471;-79
2024/04/05 07:12:12;;;;;;;7.07;6.77;;;14.60;1.00;;;;;;5058354;28;20466;-81
2024/04/05 07:14:39;;;;;;;6.80;6.50;;;14.70;1.00;;;;;;5055853;28;20466;-78
2024/04/05 07:17:08;;;;;;;7.30;6.80;;;14.70;1.00;;;;;;5060187;28;21069;-79
2024/04/05 07:19:34;;;;;;;6.80;6.40;;;14.70;1.00;;;;;;5056170;28;20473;-77
2024/04/05 07:22:01;;;;;;;6.23;6.00;;;14.70;1.00;;;;;;5059589;28;20500;-79
2024/04/05 07:24:28;;;;;;;6.77;6.43;;;14.70;1.00;;;;;;5058342;28;20486;-78
2024/04/05 07:26:57;;;;;;;6.90;6.37;;;14.70;1.00;;;;;;5058391;28;20485;-79
2024/04/05 07:29:23;;;;;;;6.67;6.37;;;14.70;1.00;;;;;;5059382;28;20498;-78
2024/04/05 07:31:51;;;;;;;6.70;6.40;;;14.70;1.00;;;;;;5042408;28;20452;-80
2024/04/05 07:34:17;;;;;;;6.60;6.40;;;14.80;1.00;;;;;;5058025;28;20438;-78
2024/04/05 07:36:46;;;;;;;6.93;6.53;;;14.90;1.00;;;;;;5056675;28;20884;-80
2024/04/05 07:39:12;;;;;;;6.60;6.10;;;15.00;1.00;;;;;;5058371;28;20466;-78
2024/04/05 07:41:40;;;;;;;6.40;6.07;;;15.10;1.00;;;;;;5056373;28;20466;-78
2024/04/05 07:44:07;;;;;;;6.63;6.43;;;15.00;1.00;;;;;;5057211;28;20507;-82
2024/04/05 07:46:35;;;;;;;7.57;7.27;;;15.10;1.00;;;;;;5056386;28;20474;-78
2024/04/05 07:49:01;;;;;;;7.90;7.33;;;15.10;1.00;;;;;;5055075;28;20473;-79
2024/04/05 07:51:29;;;;;;;7.83;7.07;;;15.10;1.00;;;;;;5056788;28;20459;-79
2024/04/05 07:53:55;;;;;;;6.63;6.43;;;15.30;1.00;;;;;;5057287;28;20503;-77
2024/04/05 07:56:22;;;;;;;7.43;7.03;;;15.30;1.00;;;;;;5058995;28;20494;-79
2024/04/05 07:58:49;;;;;;;6.90;6.70;;;15.40;1.00;;;;;;5037336;28;20532;-80
2024/04/05 08:01:18;;;;;;;6.73;6.53;;;15.50;1.00;;;;;;5061833;28;20465;-81
2024/04/05 08:03:44;;;;;;;7.20;6.90;;;15.60;1.00;;;;;;5052371;28;20534;-79
2024/04/05 08:06:12;;;;;;;6.93;6.70;;;15.60;1.00;;;;;;5062254;28;20543;-78
2024/04/05 08:08:39;;;;;;;6.50;6.30;;;15.60;1.00;;;;;;5059422;28;20435;-79
2024/04/05 08:11:06;;;;;;;6.67;6.47;;;15.60;1.00;;;;;;5056510;28;20451;-79
2024/04/05 08:13:33;;;;;;;7.00;6.60;;;15.80;1.00;;;;;;5057405;28;20452;-80
2024/04/05 08:16:01;;;;;;;6.70;6.50;;;15.70;1.00;;;;;;5059462;28;20473;-81
2024/04/05 08:18:29;;;;;;;6.50;6.30;;;15.70;1.00;;;;;;5041122;28;20466;-78
2024/04/05 08:20:56;;;;;;;6.03;5.83;;;15.90;1.00;;;;;;5057372;28;20463;-79
2024/04/05 08:23:23;;;;;;;6.53;6.23;;;15.90;1.00;;;;;;5059975;28;21155;-78
2024/04/05 08:25:50;;;;;;;6.57;6.37;;;16.00;1.00;;;;;;5057811;28;20467;-77
2024/04/05 08:28:18;;;;;;;6.53;6.17;;;16.10;1.00;;;;;;5049129;28;20490;-77
2024/04/05 08:30:45;;;;;;;6.10;5.80;;;16.20;1.00;;;;;;5061043;28;20521;-77
2024/04/05 08:33:11;;;;;;;6.43;6.10;;;16.20;1.00;;;;;;5051059;28;20479;-78
2024/04/05 08:35:40;;;;;;;6.07;5.80;;;16.30;1.00;;;;;;5055132;28;20443;-78
2024/04/05 08:38:06;;;;;;;6.40;6.00;;;16.30;1.00;;;;;;5037117;28;20796;-78
2024/04/05 08:40:33;;;;;;;6.90;6.60;;;16.30;1.00;;;;;;5052515;28;20476;-77
2024/04/05 08:43:01;;;;;;;7.40;6.97;;;16.40;1.00;;;;;;5052785;28;20544;-77
2024/04/05 08:45:31;;;;;;;6.70;6.20;;;16.40;1.00;;;;;;5052723;28;20482;-77
2024/04/05 08:48:03;;;;;;;6.10;5.90;;;16.40;1.00;;;;;;5050603;28;20812;-78
2024/04/05 08:50:31;;;;;;;6.30;6.10;;;16.50;1.00;;;;;;5056294;28;20543;-77
2024/04/05 08:52:59;;;;;;;6.53;6.33;;;16.50;1.00;;;;;;5055554;28;20546;-77
2024/04/05 08:55:27;;;;;;;6.60;6.20;;;16.60;1.00;;;;;;5052987;28;20479;-77
2024/04/05 08:57:55;;;;;;;6.43;6.00;;;16.70;1.00;;;;;;5051491;28;20565;-77
2024/04/05 09:00:24;;;;;;;6.53;6.33;;;16.80;1.00;;;;;;5049334;28;20564;-79
2024/04/05 09:02:56;;;;;;;5.30;5.10;;;16.90;1.00;;;;;;5039275;28;20499;-78
2024/04/05 09:05:24;;;;;;;4.83;4.63;;;16.90;99.90;;;;;;5052958;28;20482;-77
2024/04/05 09:08:01;;;;;;;5.33;5.13;;;16.90;99.90;;;;;;5052249;28;20537;-78
2024/04/05 09:10:30;;;;;;;5.10;4.90;;;16.90;99.90;;;;;;5054486;28;20491;-78
2024/04/05 09:12:58;;;;;;;4.40;4.30;;;17.00;99.90;;;;;;5052695;28;20477;-77
2024/04/05 09:15:25;;;;;;;4.27;4.10;;;17.00;99.90;;;;;;5052191;28;20545;-79
2024/04/05 09:17:53;;;;;;;4.37;4.20;;;17.10;99.90;;;;;;5046454;28;20504;-78
2024/04/05 09:20:24;;;;;;;4.47;4.20;;;17.20;99.90;;;;;;5054207;28;20587;-78
2024/04/05 09:22:59;;;;;;;4.80;3.70;;;17.20;99.90;;;;;;5056312;28;21012;-78
2024/04/05 09:25:26;;;;;;;4.40;4.20;;;17.30;99.90;;;;;;5051978;28;20449;-79
2024/04/05 09:28:10;;;;;;;4.40;4.30;;;17.30;99.90;;;;;;5050855;28;20454;-78
2024/04/05 09:30:37;;;;;;;4.40;4.00;;;17.30;99.90;;;;;;5050169;28;20480;-78
2024/04/05 09:33:05;;;;;;;5.23;4.73;;;17.40;99.90;;;;;;5058860;28;20576;-79
2024/04/05 09:35:36;;;;;;;4.27;4.17;;;17.50;99.90;;;;;;5051108;28;20463;-78
2024/04/05 09:38:05;;;;;;;3.77;3.47;;;17.60;99.90;;;;;;5054221;28;21865;-78
2024/04/05 09:40:32;;;;;;;3.50;3.30;;;17.60;99.90;;;;;;5052408;28;20466;-78
2024/04/05 09:43:01;;;;;;;3.47;3.17;;;17.50;99.90;;;;;;5057727;28;20541;-78
2024/04/05 09:45:31;;;;;;;2.60;2.50;;;17.60;99.90;;;;;;5050854;28;21483;-78
2024/04/05 09:48:02;;;;;;;3.27;2.97;;;17.70;99.90;;;;;;5052910;28;20437;-78
2024/04/05 09:50:29;;;;;;;2.77;2.60;;;17.70;99.90;;;;;;5051796;28;20494;-80
2024/04/05 09:52:59;;;;;;;3.00;2.90;;;17.70;99.90;;;;;;5053120;28;20462;-78
2024/04/05 09:55:29;;;;;;;6.93;2.50;;;17.70;99.90;;;;;;5059131;28;20507;-77
2024/04/05 09:57:57;;;;;;;3.53;2.80;;;17.80;99.90;;;;;;5051904;28;20570;-78
2024/04/05 10:00:26;;;;;;;2.47;2.30;;;17.90;99.90;;;;;;5060529;28;20624;-78
2024/04/05 10:02:57;;;;;;;2.70;2.60;;;18.00;99.90;;;;;;5056333;28;20534;-79
2024/04/05 10:05:25;;;;;;;2.83;2.50;;;18.00;99.90;;;;;;5059947;28;20444;-81
2024/04/05 10:07:52;;;;;;;1.90;1.80;;;17.90;99.90;;;;;;5058671;28;20454;-81
2024/04/05 10:10:28;;;;;;;2.30;2.20;;;18.00;99.90;;;;;;5040721;28;20553;-83
2024/04/05 10:12:57;;;;;;;2.60;2.40;;;18.10;99.90;;;;;;5044209;28;20968;-80
2024/04/05 10:15:25;;;;;;;2.90;2.40;;;18.20;99.90;;;;;;5041893;28;20474;-80
2024/04/05 10:17:57;;;;;;;2.03;1.93;;;18.30;99.90;;;;;;5062600;28;20485;-80
2024/04/05 10:20:24;;;;;;;2.40;2.27;;;18.20;99.90;;;;;;5049179;28;20461;-80
2024/04/05 10:22:59;;;;;;;3.13;2.13;;;18.20;99.90;;;;;;5056484;28;20477;-78
2024/04/05 10:25:25;;;;;;;2.40;2.20;;;18.20;99.90;;;;;;5052860;28;20515;-79
2024/04/05 10:27:54;;;;;;;2.00;1.90;;;18.30;99.90;;;;;;5055437;28;20490;-79
2024/04/05 10:30:21;;;;;;;2.00;1.90;;;18.40;99.90;;;;;;5053964;28;20501;-77
2024/04/05 10:32:59;;;;;;;1.87;1.80;;;18.30;99.90;;;;;;5053551;28;20538;-79
2024/04/05 10:35:26;;;;;;;1.80;1.70;;;18.40;99.90;;;;;;5055375;28;20492;-80
2024/04/05 10:37:58;;;;;;;1.93;1.70;;;18.40;99.90;;;;;;5052678;28;20460;-80
2024/04/05 10:40:24;;;;;;;2.23;2.13;;;18.50;99.90;;;;;;5049505;28;20456;-78
2024/04/05 10:42:52;;;;;;;2.33;2.07;;;18.50;99.90;;;;;;5052838;28;20482;-79
2024/04/05 10:45:20;;;;;;;1.47;1.47;;;18.70;99.90;;;;;;5070348;28;21251;-79
2024/04/05 10:47:53;;;;;;;1.80;1.70;;;18.60;99.90;;;;;;5050967;28;20494;-79
2024/04/05 10:50:21;;;;;;;3.43;1.70;;;18.70;99.90;;;;;;5054480;28;20473;-79
2024/04/05 10:52:50;;;;;;;2.10;1.90;;;18.90;99.90;;;;;;5050269;28;20497;-79
2024/04/05 10:55:16;;;;;;;1.80;1.70;;;18.90;99.90;;;;;;5050443;28;20805;-79
2024/04/05 10:57:44;;;;;;;1.70;1.60;;;18.90;99.90;;;;;;5054646;28;20564;-81
2024/04/05 11:00:11;;;;;;;1.90;1.80;;;18.80;99.90;;;;;;5051153;28;20555;-79
2024/04/05 11:02:40;;;;;;;1.70;1.60;;;18.80;99.90;;;;;;5056202;28;20487;-79
2024/04/05 11:05:09;;;;;;;1.70;1.40;;;18.80;99.90;;;;;;5055181;28;20602;-79
2024/04/05 11:07:38;;;;;;;1.40;1.40;;;18.70;99.90;;;;;;5057614;28;20456;-79
2024/04/05 11:10:18;;;;;;;1.70;1.60;;;18.90;99.90;;;;;;5069619;28;20577;-79
2024/04/05 11:12:47;;;;;;;1.60;1.50;;;18.80;99.90;;;;;;5063125;28;21045;-80
2024/04/05 11:15:17;;;;;;;1.80;1.70;;;18.70;99.90;;;;;;5052673;28;20439;-78
2024/04/05 11:17:46;;;;;;;1.80;1.70;;;18.80;99.90;;;;;;5054720;28;20494;-78
2024/04/05 11:20:13;;;;;;;1.67;1.53;;;18.80;99.90;;;;;;5056516;28;20547;-78
2024/04/05 11:22:42;;;;;;;2.50;1.60;;;18.80;99.90;;;;;;5055007;28;21332;-79
2024/04/05 11:25:08;;;;;;;2.20;2.10;;;18.80;99.90;;;;;;5053296;28;20494;-79
2024/04/05 11:27:36;;;;;;;1.67;1.57;;;18.70;99.90;;;;;;5056056;28;21055;-79
2024/04/05 11:30:03;;;;;;;1.53;1.50;;;18.80;99.90;;;;;;5051230;28;20536;-76
2024/04/05 11:32:33;;;;;;;1.73;1.63;;;18.90;99.90;;;;;;5052802;28;20486;-77
2024/04/05 11:35:00;;;;;;;1.80;1.70;;;18.80;99.90;;;;;;5057212;28;20553;-77
2024/04/05 11:37:28;;;;;;;1.80;1.40;;;18.90;99.90;;;;;;5057170;28;20502;-79
2024/04/05 11:39:56;;;;;;;1.80;1.70;;;18.80;99.90;;;;;;5052244;28;20561;-79
2024/04/05 11:42:23;;;;;;;1.80;1.70;;;18.90;99.90;;;;;;5054852;28;21053;-79
2024/04/05 11:44:50;;;;;;;2.50;1.47;;;18.90;99.90;;;;;;5056577;28;20485;-79
2024/04/05 11:47:21;;;;;;;1.60;1.50;;;18.90;99.90;;;;;;5051986;28;20545;-78
2024/04/05 11:49:47;;;;;;;1.70;1.60;;;18.90;99.90;;;;;;5055550;28;20574;-78
2024/04/05 11:52:15;;;;;;;1.80;1.70;;;18.80;99.90;;;;;;5053261;28;20485;-76
2024/04/05 11:54:43;;;;;;;1.63;1.43;;;18.90;99.90;;;;;;5052771;28;20551;-79
2024/04/05 11:57:14;;;;;;;1.90;1.73;;;18.90;99.90;;;;;;5052538;28;21146;-79
2024/04/05 11:59:40;;;;;;;2.40;1.20;;;19.20;99.90;;;;;;5049712;28;20474;-80
2024/04/05 12:02:08;;;;;;;1.53;1.43;;;19.40;99.90;;;;;;5050915;28;20507;-80
2024/04/05 12:04:34;;;;;;;1.50;1.40;;;19.40;99.90;;;;;;5052373;28;20480;-80
2024/04/05 12:07:02;;;;;;;1.50;1.40;;;19.60;99.90;;;;;;5053862;28;20493;-80
2024/04/05 12:09:28;;;;;;;5.93;1.83;;;19.60;99.90;;;;;;5055779;28;20561;-80
2024/04/05 12:11:56;;;;;;;1.60;1.40;;;19.80;99.90;;;;;;5057750;28;20483;-79
2024/04/05 12:14:24;;;;;;;2.60;1.60;;;19.70;99.90;;;;;;5057416;28;20435;-79
2024/04/05 12:16:52;;;;;;;2.03;1.70;;;19.80;99.90;;;;;;5053822;28;20446;-80
2024/04/05 12:19:19;;;;;;;1.63;1.50;;;20.00;99.90;;;;;;5052057;28;20504;-79
2024/04/05 12:21:46;;;;;;;1.33;1.30;;;20.00;99.90;;;;;;5053274;28;20488;-80
2024/04/05 12:24:12;;;;;;;2.67;1.47;;;20.10;99.90;;;;;;5055505;28;20574;-80
2024/04/05 12:26:39;;;;;;;4.00;1.60;;;20.00;99.90;;;;;;5052988;28;20538;-79
2024/04/05 12:29:07;;;;;;;3.43;2.00;;;20.10;99.90;;;;;;5054534;28;20497;-79
2024/04/05 12:31:35;;;;;;;1.70;1.60;;;20.10;99.90;;;;;;5052023;28;20561;-80
2024/04/05 12:34:02;;;;;;;2.60;1.77;;;20.10;99.90;;;;;;5053603;28;20506;-79
2024/04/05 12:36:30;;;;;;;1.40;1.40;;;20.00;99.90;;;;;;5053389;28;20471;-79
2024/04/05 12:38:57;;;;;;;1.40;1.30;;;20.00;99.90;;;;;;5053043;28;20814;-79
2024/04/05 12:41:25;;;;;;;1.37;1.30;;;20.00;99.90;;;;;;5053056;28;20478;-79
2024/04/05 12:43:51;;;;;;;1.40;1.40;;;19.90;99.90;;;;;;5053736;28;20577;-81
2024/04/05 12:46:19;;;;;;;1.30;1.30;;;19.90;99.90;;;;;;5053332;28;20549;-81
2024/04/05 12:48:47;;;;;;;1.50;1.40;;;19.90;99.90;;;;;;5057044;28;20535;-80
2024/04/05 12:51:14;;;;;;;1.30;1.30;;;20.00;99.90;;;;;;5053997;28;20524;-79
2024/04/05 12:53:41;;;;;;;1.63;1.40;;;19.90;99.90;;;;;;5053128;28;20464;-79